createdAt,value
2023-07-09T00:02:17.613Z,99412.70
2023-07-09T00:05:07.039Z,99413.96
2023-07-09T00:07:55.831Z,99419.02
2023-07-09T00:10:44.422Z,99416.37
2023-07-09T00:13:33.118Z,99416.48
2023-07-09T00:16:25.465Z,99416.86
2023-07-09T00:19:17.865Z,99413.90
2023-07-09T00:22:17.511Z,99418.94
2023-07-09T00:25:06.488Z,99420.31
2023-07-09T00:27:55.435Z,99419.99
2023-07-09T00:30:46.224Z,99420.73
2023-07-09T00:33:34.870Z,99414.38
2023-07-09T00:36:29.816Z,99414.30
2023-07-09T00:39:20.966Z,99415.48
2023-07-09T00:42:18.761Z,99418.38
2023-07-09T00:45:18.960Z,99411.45
2023-07-09T00:48:14.124Z,99412.36
2023-07-09T00:51:03.006Z,99413.18
2023-07-09T00:53:55.104Z,99407.62
2023-07-09T00:56:46.627Z,99406.03
2023-07-09T00:59:35.681Z,99403.35
2023-07-09T01:02:25.428Z,99405.35
2023-07-09T01:05:17.854Z,99406.46
2023-07-09T01:08:10.424Z,99407.31
2023-07-09T01:11:00.187Z,99399.60
2023-07-09T01:14:02.334Z,99399.92
2023-07-09T01:16:58.598Z,99397.64
2023-07-09T01:19:51.412Z,99400.60
2023-07-09T01:22:39.933Z,99401.24
2023-07-09T01:25:31.773Z,99403.13
2023-07-09T01:28:21.777Z,99402.07
2023-07-09T01:31:16.106Z,99403.54
2023-07-09T01:34:04.778Z,99406.61
2023-07-09T01:36:54.639Z,99406.78
2023-07-09T01:39:43.588Z,99407.40
2023-07-09T01:42:33.306Z,99405.73
2023-07-09T01:45:22.488Z,99405.91
2023-07-09T01:48:15.460Z,99411.44
2023-07-09T01:51:04.941Z,99415.15
2023-07-09T01:53:54.897Z,99420.14
2023-07-09T01:56:43.518Z,99422.69
2023-07-09T01:59:34.062Z,99419.21
2023-07-09T02:02:23.403Z,99425.41
2023-07-09T02:05:14.322Z,99431.49
2023-07-09T02:08:04.263Z,99428.77
2023-07-09T02:10:53.265Z,99433.83
2023-07-09T02:13:41.860Z,99437.44
2023-07-09T02:16:30.470Z,99433.59
2023-07-09T02:19:19.201Z,99430.70
2023-07-09T02:22:08.970Z,99429.06
2023-07-09T02:24:57.452Z,99430.63
2023-07-09T02:27:46.112Z,99430.36
2023-07-09T02:30:35.118Z,99434.08
2023-07-09T02:33:24.736Z,99438.95
2023-07-09T02:36:13.285Z,99436.16
2023-07-09T02:39:01.849Z,99447.54
2023-07-09T02:41:52.228Z,99452.56
2023-07-09T02:44:42.398Z,99448.86
2023-07-09T02:47:31.179Z,99444.95
2023-07-09T02:50:21.043Z,99439.13
2023-07-09T02:53:09.705Z,99442.36
2023-07-09T02:55:58.558Z,99444.30
2023-07-09T02:58:47.190Z,99441.60
2023-07-09T03:01:36.925Z,99446.10
2023-07-09T03:04:25.687Z,99443.22
2023-07-09T03:07:14.285Z,99445.05
2023-07-09T03:10:03.025Z,99445.19
2023-07-09T03:12:51.658Z,99447.05
2023-07-09T03:15:40.237Z,99447.67
2023-07-09T03:18:28.736Z,99452.11
2023-07-09T03:21:17.262Z,99454.86
2023-07-09T03:24:06.467Z,99449.54
2023-07-09T03:26:55.068Z,99456.89
2023-07-09T03:29:43.569Z,99460.15
2023-07-09T03:32:32.133Z,99468.23
2023-07-09T03:35:20.643Z,99477.21
2023-07-09T03:38:11.325Z,99473.82
2023-07-09T03:40:59.885Z,99471.35
2023-07-09T03:43:51.265Z,99467.92
2023-07-09T03:46:39.791Z,99468.66
2023-07-09T03:49:28.356Z,99470.06
2023-07-09T03:52:17.454Z,99472.77
2023-07-09T03:55:06.442Z,99475.70
2023-07-09T03:57:56.266Z,99479.81
2023-07-09T04:00:46.055Z,99479.16
2023-07-09T04:03:34.557Z,99481.14
2023-07-09T04:06:23.108Z,99489.33
2023-07-09T04:09:11.802Z,99486.52
2023-07-09T04:12:02.626Z,99487.17
2023-07-09T04:14:51.170Z,99491.23
2023-07-09T04:17:41.357Z,99489.52
2023-07-09T04:20:29.854Z,99485.64
2023-07-09T04:23:19.562Z,99491.21
2023-07-09T04:26:13.668Z,99491.30
2023-07-09T04:29:02.414Z,99489.73
2023-07-09T04:31:51.029Z,99490.13
2023-07-09T04:34:40.293Z,99488.15
2023-07-09T04:37:29.361Z,99494.97
2023-07-09T04:40:20.281Z,99490.66
2023-07-09T04:43:09.167Z,99487.67
2023-07-09T04:45:57.729Z,99485.97
2023-07-09T04:48:46.379Z,99481.80
2023-07-09T04:51:34.972Z,99484.69
2023-07-09T04:54:24.565Z,99487.20
2023-07-09T04:57:13.233Z,99484.27
2023-07-09T05:00:02.292Z,99488.73
2023-07-09T05:02:51.001Z,99490.61
2023-07-09T05:05:47.329Z,99484.83
2023-07-09T05:08:35.874Z,99492.69
2023-07-09T05:11:24.366Z,99498.59
2023-07-09T05:14:13.525Z,99500.96
2023-07-09T05:17:03.172Z,99500.98
2023-07-09T05:19:52.633Z,99504.71
2023-07-09T05:22:41.600Z,99506.73
2023-07-09T05:25:30.432Z,99509.35
2023-07-09T05:28:19.099Z,99512.17
2023-07-09T05:31:08.199Z,99507.73
2023-07-09T05:33:56.763Z,99509.33
2023-07-09T05:36:46.094Z,99512.80
2023-07-09T05:39:35.429Z,99509.44
2023-07-09T05:42:23.969Z,99509.68
2023-07-09T05:45:12.568Z,99509.64
2023-07-09T05:48:01.849Z,99512.36
2023-07-09T05:50:55.450Z,99516.58
2023-07-09T05:53:44.114Z,99519.91
2023-07-09T05:56:32.772Z,99516.77
2023-07-09T05:59:21.629Z,99516.27
2023-07-09T06:02:14.760Z,99511.39
2023-07-09T06:05:03.443Z,99510.16
2023-07-09T06:07:52.000Z,99515.26
2023-07-09T06:10:43.160Z,99514.09
2023-07-09T06:13:32.178Z,99516.77
2023-07-09T06:16:21.536Z,99515.91
2023-07-09T06:19:10.777Z,99514.52
2023-07-09T06:21:59.341Z,99514.89
2023-07-09T06:24:48.070Z,99512.58
2023-07-09T06:27:36.589Z,99512.35
2023-07-09T06:30:25.121Z,99508.11
2023-07-09T06:33:15.638Z,99512.34
2023-07-09T06:36:05.965Z,99510.52
2023-07-09T06:38:54.740Z,99512.02
2023-07-09T06:41:43.236Z,99517.05
2023-07-09T06:44:47.681Z,99511.95
2023-07-09T06:47:36.214Z,99512.11
2023-07-09T06:50:24.748Z,99516.75
2023-07-09T06:53:13.684Z,99513.58
2023-07-09T06:56:02.829Z,99518.93
2023-07-09T06:58:51.769Z,99518.42
2023-07-09T07:01:40.322Z,99517.96
2023-07-09T07:04:28.911Z,99514.02
2023-07-09T07:07:17.494Z,99509.70
2023-07-09T07:10:06.550Z,99508.27
2023-07-09T07:12:55.619Z,99508.62
2023-07-09T07:15:50.805Z,99509.72
2023-07-09T07:18:40.147Z,99509.27
2023-07-09T07:21:28.656Z,99512.38
2023-07-09T07:24:17.207Z,99509.71
2023-07-09T07:27:05.990Z,99511.61
2023-07-09T07:29:55.542Z,99511.70
2023-07-09T07:32:50.036Z,99511.97
2023-07-09T07:35:51.949Z,99510.55
2023-07-09T07:38:47.569Z,99512.55
2023-07-09T07:41:36.098Z,99511.88
2023-07-09T07:44:24.653Z,99507.44
2023-07-09T07:47:13.854Z,99503.96
2023-07-09T07:50:02.349Z,99502.59
2023-07-09T07:52:50.854Z,99505.29
2023-07-09T07:55:39.371Z,99506.90
2023-07-09T07:58:28.210Z,99506.81
2023-07-09T08:01:16.735Z,99504.46
2023-07-09T08:04:06.498Z,99504.65
2023-07-09T08:06:55.542Z,99503.20
2023-07-09T08:09:44.334Z,99499.09
2023-07-09T08:12:33.633Z,99496.23
2023-07-09T08:15:22.309Z,99496.41
2023-07-09T08:18:10.891Z,99500.46
2023-07-09T08:21:03.023Z,99503.14
2023-07-09T08:23:51.572Z,99502.63
2023-07-09T08:26:40.364Z,99505.83
2023-07-09T08:29:28.980Z,99507.13
2023-07-09T08:32:17.503Z,99499.52
2023-07-09T08:35:33.709Z,99503.49
2023-07-09T08:38:15.186Z,99499.18
2023-07-09T08:41:34.999Z,99501.36
2023-07-09T08:44:34.248Z,99499.52
2023-07-09T08:47:28.989Z,99498.61
2023-07-09T08:50:22.240Z,99495.46
2023-07-09T08:53:20.799Z,99496.83
2023-07-09T08:56:11.283Z,99494.80
2023-07-09T08:59:02.952Z,99497.14
2023-07-09T09:01:56.561Z,99500.80
2023-07-09T09:04:46.124Z,99504.57
2023-07-09T09:07:42.676Z,99500.69
2023-07-09T09:10:41.762Z,99504.34
2023-07-09T09:13:31.739Z,99500.80
2023-07-09T09:16:33.818Z,99506.48
2023-07-09T09:19:30.654Z,99506.13
2023-07-09T09:22:23.779Z,99509.02
2023-07-09T09:25:25.354Z,99504.20
2023-07-09T09:28:15.235Z,99504.98
2023-07-09T09:31:04.263Z,99503.30
2023-07-09T09:33:53.846Z,99503.73
2023-07-09T09:36:43.441Z,99503.81
2023-07-09T09:39:31.993Z,99506.56
2023-07-09T09:42:20.523Z,99506.34
2023-07-09T09:45:16.443Z,99510.91
2023-07-09T09:48:29.529Z,99509.67
2023-07-09T09:51:19.358Z,99518.14
2023-07-09T09:54:17.877Z,99511.70
2023-07-09T09:57:20.076Z,99502.75
2023-07-09T10:00:16.558Z,99504.48
2023-07-09T10:03:07.939Z,99510.13
2023-07-09T10:06:00.870Z,99512.08
2023-07-09T10:09:17.451Z,99509.11
2023-07-09T10:12:15.666Z,99511.55
2023-07-09T10:15:25.609Z,99510.61
2023-07-09T10:18:32.669Z,99507.74
2023-07-09T10:21:44.674Z,99509.90
2023-07-09T10:24:51.655Z,99508.23
2023-07-09T10:28:05.802Z,99504.69
2023-07-09T10:31:17.366Z,99506.91
2023-07-09T10:34:16.404Z,99507.48
2023-07-09T10:37:31.379Z,99504.42
2023-07-09T10:40:32.904Z,99495.98
2023-07-09T10:43:43.048Z,99501.69
2023-07-09T10:46:36.113Z,99495.06
2023-07-09T10:49:34.097Z,99497.00
2023-07-09T10:52:35.391Z,99494.65
2023-07-09T10:55:42.753Z,99495.58
2023-07-09T10:58:44.711Z,99492.13
2023-07-09T11:01:39.966Z,99492.59
2023-07-09T11:04:35.602Z,99490.14
2023-07-09T11:07:32.728Z,99491.27
2023-07-09T11:10:28.699Z,99496.08
2023-07-09T11:13:51.902Z,99494.59
2023-07-09T11:16:44.124Z,99490.28
2023-07-09T11:19:32.885Z,99494.46
2023-07-09T11:22:22.572Z,99493.10
2023-07-09T11:25:13.108Z,99496.75
2023-07-09T11:28:07.097Z,99496.25
2023-07-09T11:30:56.039Z,99494.19
2023-07-09T11:33:50.451Z,99499.61
2023-07-09T11:36:59.178Z,99489.41
2023-07-09T11:39:49.936Z,99487.90
2023-07-09T11:42:50.430Z,99490.39
2023-07-09T11:45:39.033Z,99487.88
2023-07-09T11:48:30.445Z,99486.13
2023-07-09T11:51:24.126Z,99483.29
2023-07-09T11:54:14.676Z,99486.40
2023-07-09T11:57:04.321Z,99487.27
2023-07-09T12:00:02.092Z,99482.66
2023-07-09T12:03:01.493Z,99479.30
2023-07-09T12:05:53.834Z,99480.58
2023-07-09T12:08:44.115Z,99476.20
2023-07-09T12:11:35.771Z,99475.29
2023-07-09T12:14:25.445Z,99474.98
2023-07-09T12:17:14.082Z,99473.33
2023-07-09T12:20:02.977Z,99468.70
2023-07-09T12:22:54.226Z,99464.27
2023-07-09T12:25:49.307Z,99459.35
2023-07-09T12:28:37.816Z,99458.40
2023-07-09T12:31:31.764Z,99456.25
2023-07-09T12:34:20.403Z,99456.06
2023-07-09T12:37:19.372Z,99460.05
2023-07-09T12:40:15.687Z,99459.09
2023-07-09T12:43:05.401Z,99462.70
2023-07-09T12:45:55.163Z,99456.75
2023-07-09T12:48:44.557Z,99451.68
2023-07-09T12:51:33.255Z,99447.23
2023-07-09T12:54:22.418Z,99452.02
2023-07-09T12:57:19.181Z,99449.08
2023-07-09T13:00:16.198Z,99450.36
2023-07-09T13:03:14.958Z,99451.31
2023-07-09T13:06:07.105Z,99447.27
2023-07-09T13:08:58.833Z,99441.47
2023-07-09T13:11:47.873Z,99436.60
2023-07-09T13:14:36.379Z,99440.84
2023-07-09T13:17:30.532Z,99442.29
2023-07-09T13:20:19.085Z,99440.24
2023-07-09T13:23:22.378Z,99440.35
2023-07-09T13:26:11.001Z,99435.42
2023-07-09T13:28:59.508Z,99437.88
2023-07-09T13:31:49.456Z,99433.20
2023-07-09T13:34:40.248Z,99435.02
2023-07-09T13:37:29.050Z,99436.19
2023-07-09T13:40:17.657Z,99425.95
2023-07-09T13:43:22.632Z,99434.16
2023-07-09T13:46:11.754Z,99432.78
2023-07-09T13:49:01.549Z,99433.27
2023-07-09T13:51:53.265Z,99436.19
2023-07-09T13:54:41.820Z,99430.63
2023-07-09T13:57:30.766Z,99433.02
2023-07-09T14:00:27.825Z,99427.73
2023-07-09T14:03:20.678Z,99422.77
2023-07-09T14:06:17.955Z,99427.73
2023-07-09T14:09:07.579Z,99429.80
2023-07-09T14:11:58.415Z,99425.68
2023-07-09T14:15:01.438Z,99428.00
2023-07-09T14:17:57.447Z,99432.02
2023-07-09T14:20:46.872Z,99434.48
2023-07-09T14:23:35.461Z,99434.00
2023-07-09T14:26:24.039Z,99424.27
2023-07-09T14:29:15.030Z,99425.23
2023-07-09T14:32:04.173Z,99422.85
2023-07-09T14:34:53.910Z,99419.60
2023-07-09T14:37:43.180Z,99423.05
2023-07-09T14:40:31.870Z,99418.85
2023-07-09T14:43:21.544Z,99420.16
2023-07-09T14:46:12.455Z,99422.72
2023-07-09T14:49:11.295Z,99418.67
2023-07-09T14:52:00.165Z,99417.06
2023-07-09T14:54:49.817Z,99413.09
2023-07-09T14:57:38.362Z,99414.33
2023-07-09T15:00:27.017Z,99405.25
2023-07-09T15:03:24.529Z,99405.94
2023-07-09T15:06:15.274Z,99408.17
2023-07-09T15:09:05.592Z,99406.00
2023-07-09T15:11:59.852Z,99405.55
2023-07-09T15:14:54.251Z,99406.13
2023-07-09T15:17:42.971Z,99403.55
2023-07-09T15:20:31.925Z,99399.02
2023-07-09T15:23:23.144Z,99399.11
2023-07-09T15:26:16.768Z,99400.45
2023-07-09T15:29:08.005Z,99398.55
2023-07-09T15:31:57.848Z,99398.85
2023-07-09T15:34:46.432Z,99396.15
2023-07-09T15:37:36.427Z,99391.96
2023-07-09T15:40:30.042Z,99383.62
2023-07-09T15:43:19.015Z,99380.44
2023-07-09T15:46:16.415Z,99379.09
2023-07-09T15:49:05.853Z,99382.21
2023-07-09T15:51:55.343Z,99382.00
2023-07-09T15:54:44.130Z,99382.45
2023-07-09T15:57:41.538Z,99381.02
2023-07-09T16:00:36.358Z,99378.86
2023-07-09T16:03:27.324Z,99390.11
2023-07-09T16:06:17.152Z,99387.67
2023-07-09T16:09:06.106Z,99384.89
2023-07-09T16:11:55.337Z,99384.35
2023-07-09T16:14:48.040Z,99388.09
2023-07-09T16:17:49.900Z,99384.65
2023-07-09T16:20:46.459Z,99379.41
2023-07-09T16:23:35.003Z,99383.91
2023-07-09T16:26:28.505Z,99381.24
2023-07-09T16:29:20.623Z,99380.96
2023-07-09T16:32:09.935Z,99376.65
2023-07-09T16:34:58.555Z,99373.16
2023-07-09T16:37:48.840Z,99378.03
2023-07-09T16:40:38.483Z,99379.54
2023-07-09T16:43:28.616Z,99376.02
2023-07-09T16:46:25.477Z,99378.95
2023-07-09T16:49:31.963Z,99377.55
2023-07-09T16:52:28.461Z,99381.30
2023-07-09T16:55:21.471Z,99380.16
2023-07-09T16:58:35.166Z,99383.98
2023-07-09T17:01:23.718Z,99382.72
2023-07-09T17:04:31.634Z,99382.18
2023-07-09T17:07:20.307Z,99383.45
2023-07-09T17:10:12.933Z,99384.16
2023-07-09T17:13:03.416Z,99387.52
2023-07-09T17:15:52.897Z,99385.21
2023-07-09T17:18:41.490Z,99382.75
2023-07-09T17:21:30.075Z,99382.26
2023-07-09T17:24:28.430Z,99385.71
2023-07-09T17:27:17.166Z,99389.54
2023-07-09T17:30:15.583Z,99396.14
2023-07-09T17:33:04.419Z,99397.23
2023-07-09T17:35:55.617Z,99394.37
2023-07-09T17:38:44.294Z,99401.73
2023-07-09T17:41:33.043Z,99398.17
2023-07-09T17:44:23.619Z,99395.29
2023-07-09T17:47:19.102Z,99394.16
2023-07-09T17:50:24.489Z,99391.48
2023-07-09T17:53:19.906Z,99392.98
2023-07-09T17:56:20.638Z,99390.98
2023-07-09T17:59:14.428Z,99391.98
2023-07-09T18:02:16.409Z,99393.14
2023-07-09T18:05:22.619Z,99394.60
2023-07-09T18:08:12.605Z,99399.82
2023-07-09T18:11:01.280Z,99401.85
2023-07-09T18:13:49.919Z,99399.56
2023-07-09T18:16:38.502Z,99398.84
2023-07-09T18:19:28.670Z,99396.01
2023-07-09T18:22:22.336Z,99396.81
2023-07-09T18:25:11.894Z,99391.56
2023-07-09T18:28:03.031Z,99390.03
2023-07-09T18:31:00.033Z,99389.09
2023-07-09T18:33:59.975Z,99393.59
2023-07-09T18:36:48.543Z,99397.20
2023-07-09T18:39:37.121Z,99399.96
2023-07-09T18:42:26.132Z,99398.41
2023-07-09T18:45:17.452Z,99402.41
2023-07-09T18:48:14.662Z,99401.77
2023-07-09T18:51:03.829Z,99398.97
2023-07-09T18:53:52.477Z,99401.85
2023-07-09T18:56:41.963Z,99402.43
2023-07-09T18:59:34.071Z,99399.98
2023-07-09T19:02:25.014Z,99406.98
2023-07-09T19:05:24.493Z,99407.23
2023-07-09T19:08:26.100Z,99404.05
2023-07-09T19:11:14.784Z,99407.29
2023-07-09T19:14:04.709Z,99406.66
2023-07-09T19:16:57.337Z,99409.09
2023-07-09T19:19:47.709Z,99407.98
2023-07-09T19:22:36.571Z,99412.43
2023-07-09T19:25:33.011Z,99411.90
2023-07-09T19:28:22.933Z,99408.38
2023-07-09T19:31:11.663Z,99410.41
2023-07-09T19:34:00.352Z,99413.88
2023-07-09T19:36:55.632Z,99417.17
2023-07-09T19:39:45.760Z,99416.16
2023-07-09T19:42:34.385Z,99418.35
2023-07-09T19:45:30.366Z,99419.88
2023-07-09T19:48:27.013Z,99422.39
2023-07-09T19:51:16.215Z,99418.09
2023-07-09T19:54:15.713Z,99419.02
2023-07-09T19:57:04.538Z,99419.77
2023-07-09T19:59:53.030Z,99418.14
2023-07-09T20:02:44.678Z,99420.77
2023-07-09T20:05:33.260Z,99421.16
2023-07-09T20:08:22.927Z,99421.91
2023-07-09T20:11:15.515Z,99423.45
2023-07-09T20:14:19.919Z,99425.28
2023-07-09T20:17:09.567Z,99423.20
2023-07-09T20:19:58.410Z,99420.80
2023-07-09T20:22:48.674Z,99426.41
2023-07-09T20:25:37.351Z,99435.30
2023-07-09T20:28:29.323Z,99435.55
2023-07-09T20:31:21.483Z,99432.08
2023-07-09T20:34:22.903Z,99434.80
2023-07-09T20:37:12.433Z,99438.78
2023-07-09T20:40:01.051Z,99441.98
2023-07-09T20:42:56.731Z,99441.81
2023-07-09T20:45:45.982Z,99442.95
2023-07-09T20:48:34.680Z,99444.52
2023-07-09T20:51:23.233Z,99450.98
2023-07-09T20:54:11.841Z,99449.46
2023-07-09T20:57:06.959Z,99449.02
2023-07-09T20:59:59.006Z,99451.55
2023-07-09T21:02:49.947Z,99448.77
2023-07-09T21:05:38.721Z,99448.26
2023-07-09T21:08:29.111Z,99450.91
2023-07-09T21:11:17.604Z,99449.20
2023-07-09T21:14:11.803Z,99446.19
2023-07-09T21:17:00.715Z,99452.98
2023-07-09T21:19:51.555Z,99455.77
2023-07-09T21:22:42.637Z,99459.06
2023-07-09T21:25:31.266Z,99462.55
2023-07-09T21:28:20.753Z,99467.04
2023-07-09T21:31:18.858Z,99462.63
2023-07-09T21:34:18.703Z,99465.41
2023-07-09T21:37:19.609Z,99461.33
2023-07-09T21:40:20.577Z,99464.48
2023-07-09T21:43:09.141Z,99465.30
2023-07-09T21:45:58.197Z,99468.38
2023-07-09T21:48:47.058Z,99469.63
2023-07-09T21:51:35.594Z,99472.88
2023-07-09T21:54:58.760Z,99472.48
2023-07-09T21:57:38.597Z,99468.81
2023-07-09T22:00:28.724Z,99474.41
2023-07-09T22:03:18.242Z,99473.65
2023-07-09T22:06:10.622Z,99475.54
2023-07-09T22:08:59.115Z,99470.83
2023-07-09T22:11:50.419Z,99471.23
2023-07-09T22:14:38.944Z,99468.42
2023-07-09T22:17:27.682Z,99472.98
2023-07-09T22:20:28.625Z,99481.98
2023-07-09T22:23:21.100Z,99481.09
2023-07-09T22:26:09.766Z,99483.88
2023-07-09T22:29:00.030Z,99486.91
2023-07-09T22:31:48.734Z,99479.61
2023-07-09T22:34:37.373Z,99483.86
2023-07-09T22:37:26.017Z,99485.36
2023-07-09T22:40:14.898Z,99484.56
2023-07-09T22:43:04.042Z,99489.27
2023-07-09T22:45:53.092Z,99484.68
2023-07-09T22:48:44.054Z,99480.71
2023-07-09T22:51:34.496Z,99481.41
2023-07-09T22:54:24.622Z,99481.56
2023-07-09T22:57:13.168Z,99486.15
2023-07-09T23:00:01.751Z,99484.88
2023-07-09T23:02:50.828Z,99480.25
2023-07-09T23:05:39.576Z,99486.23
2023-07-09T23:08:29.897Z,99480.27
2023-07-09T23:11:25.609Z,99484.82
2023-07-09T23:14:26.186Z,99487.67
2023-07-09T23:17:14.730Z,99487.66
2023-07-09T23:20:05.478Z,99486.34
2023-07-09T23:22:54.380Z,99485.52
2023-07-09T23:25:44.191Z,99482.69
2023-07-09T23:28:32.979Z,99476.91
2023-07-09T23:31:27.391Z,99477.56
2023-07-09T23:34:18.968Z,99478.70
2023-07-09T23:37:07.482Z,99473.96
2023-07-09T23:39:56.201Z,99472.89
2023-07-09T23:42:47.696Z,99471.36
2023-07-09T23:45:36.248Z,99469.62
2023-07-09T23:48:27.633Z,99475.22
2023-07-09T23:51:16.115Z,99474.29
2023-07-09T23:54:05.376Z,99470.16
2023-07-09T23:56:54.403Z,99465.54
2023-07-09T23:59:46.475Z,99471.13
